createdAt,value
2022-12-15T00:00:18.285Z,118.78
2022-12-15T00:03:04.163Z,129.90
2022-12-15T00:05:50.118Z,150.55
2022-12-15T00:08:36.412Z,124.07
2022-12-15T00:11:22.664Z,113.60
2022-12-15T00:14:08.969Z,123.00
2022-12-15T00:16:55.017Z,101.90
2022-12-15T00:19:40.825Z,106.82
2022-12-15T00:22:26.686Z,103.20
2022-12-15T00:25:12.413Z,111.95
2022-12-15T00:27:58.202Z,113.70
2022-12-15T00:30:43.915Z,103.60
2022-12-15T00:33:31.244Z,107.65
2022-12-15T00:36:18.656Z,107.22
2022-12-15T00:38:46.409Z,107.28
2022-12-15T00:41:16.541Z,116.53
2022-12-15T00:43:44.062Z,122.53
2022-12-15T00:46:30.455Z,127.03
2022-12-15T00:48:58.251Z,132.45
2022-12-15T00:51:44.732Z,155.90
2022-12-15T00:54:30.743Z,167.57
2022-12-15T00:57:16.695Z,158.07
2022-12-15T01:00:02.425Z,142.27
2022-12-15T01:02:48.202Z,135.23
2022-12-15T01:05:34.254Z,133.05
2022-12-15T01:08:20.020Z,123.53
2022-12-15T01:11:05.582Z,117.43
2022-12-15T01:13:51.205Z,118.65
2022-12-15T01:16:37.092Z,101.82
2022-12-15T01:19:22.852Z,101.70
2022-12-15T01:21:50.020Z,108.47
2022-12-15T01:24:17.169Z,100.90
2022-12-15T01:26:44.147Z,110.13
2022-12-15T01:29:11.172Z,107.18
2022-12-15T01:31:38.152Z,123.03
2022-12-15T01:34:05.413Z,122.32
2022-12-15T01:36:32.683Z,116.88
2022-12-15T01:38:59.703Z,109.68
2022-12-15T01:41:27.131Z,115.47
2022-12-15T01:43:54.132Z,106.55
2022-12-15T01:46:23.507Z,112.72
2022-12-15T01:49:29.011Z,107.78
2022-12-15T01:52:00.510Z,101.47
2022-12-15T01:54:30.732Z,107.82
2022-12-15T01:57:03.416Z,109.68
2022-12-15T01:59:35.401Z,111.30
2022-12-15T02:02:03.431Z,109.90
2022-12-15T02:04:31.397Z,115.13
2022-12-15T02:06:58.519Z,105.65
2022-12-15T02:09:28.184Z,103.05
2022-12-15T02:12:32.518Z,99.18
2022-12-15T02:15:11.488Z,99.63
2022-12-15T02:18:03.972Z,99.70
2022-12-15T02:20:38.150Z,106.07
2022-12-15T02:23:17.460Z,107.45
2022-12-15T02:26:17.979Z,100.57
2022-12-15T02:28:57.102Z,102.28
2022-12-15T02:31:51.182Z,107.40
2022-12-15T02:34:55.261Z,110.65
2022-12-15T02:37:25.503Z,105.32
2022-12-15T02:39:52.566Z,139.48
2022-12-15T02:42:19.931Z,230.50
2022-12-15T02:44:53.140Z,216.77
2022-12-15T02:47:31.731Z,158.93
2022-12-15T02:50:01.451Z,121.50
2022-12-15T02:52:41.779Z,122.88
2022-12-15T02:55:11.457Z,121.60
2022-12-15T02:57:59.524Z,111.05
2022-12-15T03:00:28.613Z,117.38
2022-12-15T03:02:56.485Z,111.63
2022-12-15T03:05:25.038Z,113.18
2022-12-15T03:07:54.381Z,107.40
2022-12-15T03:10:24.895Z,110.65
2022-12-15T03:12:52.550Z,112.63
2022-12-15T03:15:19.974Z,113.00
2022-12-15T03:17:46.922Z,111.97
2022-12-15T03:20:13.935Z,120.60
2022-12-15T03:22:40.981Z,112.28
2022-12-15T03:25:08.547Z,115.05
2022-12-15T03:27:35.812Z,137.40
2022-12-15T03:30:03.006Z,123.38
2022-12-15T03:32:30.413Z,118.28
2022-12-15T03:34:57.615Z,114.22
2022-12-15T03:37:24.623Z,120.10
2022-12-15T03:39:51.739Z,118.57
2022-12-15T03:42:38.733Z,117.90
2022-12-15T03:45:06.302Z,112.00
2022-12-15T03:47:33.459Z,112.22
2022-12-15T03:50:00.548Z,115.28
2022-12-15T03:52:27.553Z,113.60
2022-12-15T03:54:54.610Z,110.20
2022-12-15T03:57:21.661Z,116.97
2022-12-15T03:59:48.754Z,113.85
2022-12-15T04:02:16.041Z,107.07
2022-12-15T04:04:43.146Z,102.95
2022-12-15T04:07:10.191Z,107.45
2022-12-15T04:09:37.610Z,108.47
2022-12-15T04:12:04.929Z,108.57
2022-12-15T04:14:32.080Z,100.43
2022-12-15T04:16:59.438Z,108.30
2022-12-15T04:19:44.880Z,95.05
2022-12-15T04:22:17.637Z,98.90
2022-12-15T04:25:03.683Z,90.85
2022-12-15T04:27:49.491Z,99.95
2022-12-15T04:30:35.060Z,91.63
2022-12-15T04:33:25.166Z,73.45
2022-12-15T04:36:15.003Z,98.22
2022-12-15T04:39:00.887Z,95.65
2022-12-15T04:41:46.418Z,90.18
2022-12-15T04:44:32.303Z,74.60
2022-12-15T04:47:18.063Z,97.82
2022-12-15T04:50:03.602Z,109.57
2022-12-15T04:52:49.419Z,100.97
2022-12-15T04:55:34.948Z,112.32
2022-12-15T04:58:26.081Z,112.20
2022-12-15T05:01:12.842Z,88.22
2022-12-15T05:03:58.416Z,94.75
2022-12-15T05:06:44.254Z,91.45
2022-12-15T05:09:29.731Z,95.82
2022-12-15T05:12:15.566Z,88.03
2022-12-15T05:15:01.350Z,103.05
2022-12-15T05:17:48.242Z,85.68
2022-12-15T05:20:33.969Z,102.68
2022-12-15T05:23:19.329Z,119.53
2022-12-15T05:26:04.978Z,91.63
2022-12-15T05:28:50.861Z,85.60
2022-12-15T05:31:36.413Z,109.72
2022-12-15T05:34:05.715Z,105.28
2022-12-15T05:36:33.604Z,106.50
2022-12-15T05:39:00.602Z,107.20
2022-12-15T05:41:27.614Z,119.55
2022-12-15T05:43:54.713Z,116.95
2022-12-15T05:46:21.946Z,116.22
2022-12-15T05:48:49.113Z,129.07
2022-12-15T05:51:16.271Z,120.13
2022-12-15T05:53:43.395Z,115.32
2022-12-15T05:56:13.132Z,139.77
2022-12-15T05:58:45.481Z,117.30
2022-12-15T06:01:15.976Z,122.05
2022-12-15T06:03:43.130Z,125.05
2022-12-15T06:06:12.596Z,113.47
2022-12-15T06:08:41.610Z,127.82
2022-12-15T06:11:11.661Z,114.80
2022-12-15T06:13:38.834Z,123.75
2022-12-15T06:16:10.201Z,128.20
2022-12-15T06:18:40.051Z,116.85
2022-12-15T06:21:10.016Z,120.80
2022-12-15T06:26:17.560Z,117.65
2022-12-15T06:28:45.313Z,110.05
2022-12-15T06:31:13.043Z,122.72
2022-12-15T06:33:40.817Z,117.72
2022-12-15T06:36:13.779Z,114.03
2022-12-15T06:38:44.313Z,112.30
2022-12-15T06:41:13.417Z,107.65
2022-12-15T06:43:41.322Z,125.00
2022-12-15T06:46:09.238Z,130.00
2022-12-15T06:48:36.610Z,128.18
2022-12-15T06:51:06.149Z,116.00
2022-12-15T06:53:38.043Z,117.65
2022-12-15T06:56:15.917Z,113.60
2022-12-15T06:58:42.897Z,120.35
2022-12-15T07:01:11.380Z,115.95
2022-12-15T07:03:39.678Z,113.03
2022-12-15T07:06:10.291Z,120.85
2022-12-15T07:08:41.289Z,115.03
2022-12-15T07:11:12.248Z,113.25
2022-12-15T07:13:40.155Z,118.63
2022-12-15T07:16:08.454Z,118.68
2022-12-15T07:18:35.533Z,119.10
2022-12-15T07:21:04.762Z,117.43
2022-12-15T07:23:52.863Z,115.50
2022-12-15T07:26:19.478Z,118.63
2022-12-15T07:28:46.605Z,118.85
2022-12-15T07:31:13.737Z,116.88
2022-12-15T07:33:40.798Z,114.20
2022-12-15T07:36:08.790Z,119.43
2022-12-15T07:38:36.734Z,124.13
2022-12-15T07:41:05.894Z,116.45
2022-12-15T07:43:33.610Z,116.53
2022-12-15T07:46:01.605Z,124.97
2022-12-15T07:48:29.424Z,124.47
2022-12-15T07:51:07.294Z,128.65
2022-12-15T07:53:36.717Z,126.47
2022-12-15T07:56:08.970Z,125.00
2022-12-15T07:58:37.492Z,131.05
2022-12-15T08:01:07.080Z,141.70
2022-12-15T08:03:36.053Z,133.68
2022-12-15T08:06:05.763Z,140.23
2022-12-15T08:08:34.320Z,137.23
2022-12-15T08:11:10.538Z,136.90
2022-12-15T08:14:02.193Z,141.30
2022-12-15T08:16:26.469Z,125.55
2022-12-15T08:18:54.075Z,134.35
2022-12-15T08:21:21.095Z,142.68
2022-12-15T08:23:48.541Z,138.20
2022-12-15T08:26:17.974Z,130.60
2022-12-15T08:28:46.204Z,140.23
2022-12-15T08:31:17.097Z,137.00
2022-12-15T08:33:45.173Z,142.20
2022-12-15T08:36:14.933Z,143.88
2022-12-15T08:38:43.653Z,136.85
2022-12-15T08:41:19.804Z,133.27
2022-12-15T08:43:49.337Z,143.57
2022-12-15T08:46:18.598Z,129.60
2022-12-15T08:48:45.935Z,139.10
2022-12-15T08:51:13.463Z,127.82
2022-12-15T08:53:40.501Z,135.95
2022-12-15T08:56:10.566Z,145.77
2022-12-15T08:58:38.021Z,151.70
2022-12-15T09:01:13.781Z,137.30
2022-12-15T09:03:43.302Z,146.52
2022-12-15T09:06:19.761Z,150.75
2022-12-15T09:08:50.185Z,133.80
2022-12-15T09:11:17.546Z,143.45
2022-12-15T09:13:44.818Z,138.18
2022-12-15T09:16:16.259Z,132.38
2022-12-15T09:18:46.016Z,141.15
2022-12-15T09:21:13.776Z,134.48
2022-12-15T09:23:41.099Z,138.98
2022-12-15T09:26:13.105Z,147.20
2022-12-15T09:28:40.844Z,147.23
2022-12-15T09:31:15.085Z,143.18
2022-12-15T09:33:44.040Z,138.55
2022-12-15T09:36:13.920Z,142.48
2022-12-15T09:38:42.457Z,137.55
2022-12-15T09:41:15.601Z,139.88
2022-12-15T09:44:04.201Z,132.27
2022-12-15T09:46:36.271Z,144.63
2022-12-15T09:49:12.194Z,138.15
2022-12-15T09:52:07.212Z,138.45
2022-12-15T09:54:38.516Z,160.35
2022-12-15T09:57:14.577Z,145.07
2022-12-15T10:00:07.841Z,131.27
2022-12-15T10:02:40.825Z,141.65
2022-12-15T10:05:38.211Z,145.85
2022-12-15T10:08:14.947Z,158.65
2022-12-15T10:10:59.703Z,146.70
2022-12-15T10:13:40.083Z,150.25
2022-12-15T10:16:37.623Z,150.90
2022-12-15T10:19:09.154Z,178.98
2022-12-15T10:21:36.702Z,148.63
2022-12-15T10:24:37.299Z,163.63
2022-12-15T10:27:13.899Z,136.18
2022-12-15T10:29:45.613Z,153.77
2022-12-15T10:32:19.814Z,142.60
2022-12-15T10:34:47.264Z,160.77
2022-12-15T10:37:19.654Z,146.15
2022-12-15T10:39:50.238Z,151.32
2022-12-15T10:42:23.641Z,162.15
2022-12-15T10:44:54.329Z,159.50
2022-12-15T10:47:31.487Z,158.43
2022-12-15T10:50:24.192Z,153.02
2022-12-15T10:52:52.116Z,149.68
2022-12-15T10:55:40.787Z,153.27
2022-12-15T10:58:23.691Z,142.93
2022-12-15T11:01:08.436Z,149.05
2022-12-15T11:03:39.965Z,143.73
2022-12-15T11:06:16.439Z,146.18
2022-12-15T11:08:45.239Z,143.70
2022-12-15T11:11:54.575Z,145.77
2022-12-15T11:14:26.127Z,146.43
2022-12-15T11:16:59.864Z,133.15
2022-12-15T11:19:49.366Z,135.63
2022-12-15T11:22:27.662Z,126.70
2022-12-15T11:25:05.387Z,131.40
2022-12-15T11:27:44.290Z,131.88
2022-12-15T11:30:43.464Z,132.43
2022-12-15T11:33:10.927Z,126.30
2022-12-15T11:35:46.837Z,127.35
2022-12-15T11:38:25.244Z,124.70
2022-12-15T11:40:54.783Z,129.75
2022-12-15T11:43:37.095Z,129.10
2022-12-15T11:46:13.486Z,130.13
2022-12-15T11:49:23.088Z,128.90
2022-12-15T11:52:06.601Z,129.27
2022-12-15T11:54:48.656Z,130.10
2022-12-15T11:57:44.029Z,118.38
2022-12-15T12:00:17.419Z,127.95
2022-12-15T12:02:49.843Z,121.20
2022-12-15T12:05:22.871Z,118.20
2022-12-15T12:08:12.912Z,124.43
2022-12-15T12:13:31.100Z,129.27
2022-12-15T12:16:27.167Z,134.43
2022-12-15T12:19:31.211Z,126.68
2022-12-15T12:22:07.705Z,129.30
2022-12-15T12:24:53.348Z,119.22
2022-12-15T12:27:23.521Z,125.78
2022-12-15T12:29:58.433Z,119.55
2022-12-15T12:32:50.444Z,107.85
2022-12-15T12:35:45.802Z,104.15
2022-12-15T12:38:14.201Z,100.30
2022-12-15T12:40:41.190Z,88.63
2022-12-15T12:43:22.880Z,85.53
2022-12-15T12:45:57.548Z,79.82
2022-12-15T12:48:33.690Z,73.80
2022-12-15T12:51:17.504Z,72.22
2022-12-15T12:53:44.661Z,65.38
2022-12-15T12:56:32.601Z,65.57
2022-12-15T12:59:00.180Z,68.82
2022-12-15T13:01:35.595Z,63.05
2022-12-15T13:04:07.721Z,57.25
2022-12-15T13:06:35.018Z,58.88
2022-12-15T13:09:17.083Z,59.13
2022-12-15T13:11:53.144Z,59.78
2022-12-15T13:14:40.553Z,62.38
2022-12-15T13:17:26.699Z,64.68
2022-12-15T13:19:57.260Z,56.42
2022-12-15T13:22:35.767Z,58.60
2022-12-15T13:25:24.198Z,60.80
2022-12-15T13:27:53.507Z,63.28
2022-12-15T13:30:20.729Z,67.93
2022-12-15T13:32:53.392Z,66.28
2022-12-15T13:35:30.404Z,57.05
2022-12-15T13:38:08.541Z,72.03
2022-12-15T13:40:35.714Z,61.40
2022-12-15T13:43:05.883Z,64.63
2022-12-15T13:46:10.629Z,63.15
2022-12-15T13:48:49.270Z,61.85
2022-12-15T13:51:28.613Z,58.60
2022-12-15T13:54:00.354Z,60.88
2022-12-15T13:59:45.871Z,55.55
2022-12-15T14:02:29.824Z,54.13
2022-12-15T14:05:17.612Z,58.42
2022-12-15T14:07:58.229Z,53.53
2022-12-15T14:10:26.289Z,54.50
2022-12-15T14:12:56.614Z,55.08
2022-12-15T14:15:32.588Z,51.13
2022-12-15T14:18:01.935Z,60.15
2022-12-15T14:20:39.406Z,58.50
2022-12-15T14:23:24.358Z,57.95
2022-12-15T14:25:55.035Z,57.65
2022-12-15T14:28:30.697Z,61.50
2022-12-15T14:31:01.591Z,55.20
2022-12-15T14:33:29.947Z,66.22
2022-12-15T14:35:58.583Z,71.38
2022-12-15T14:38:37.639Z,64.90
2022-12-15T14:41:05.847Z,68.80
2022-12-15T14:43:37.707Z,69.32
2022-12-15T14:46:18.899Z,70.65
2022-12-15T14:48:57.666Z,67.88
2022-12-15T14:51:28.644Z,66.03
2022-12-15T14:53:56.245Z,70.88
2022-12-15T14:56:30.770Z,70.88
2022-12-15T14:59:17.324Z,69.68
2022-12-15T15:01:58.682Z,71.95
2022-12-15T15:03:11.588Z,60.55
2022-12-15T15:04:31.462Z,74.90
2022-12-15T15:07:03.859Z,71.22
2022-12-15T15:09:38.673Z,71.35
2022-12-15T15:12:09.441Z,69.10
2022-12-15T15:14:43.905Z,67.25
2022-12-15T15:17:13.864Z,68.75
2022-12-15T15:22:28.474Z,70.53
2022-12-15T15:24:55.539Z,68.28
2022-12-15T15:27:32.061Z,72.65
2022-12-15T15:30:20.870Z,77.35
2022-12-15T15:32:59.049Z,72.45
2022-12-15T15:35:31.412Z,76.72
2022-12-15T15:38:04.747Z,72.53
2022-12-15T15:40:31.817Z,79.47
2022-12-15T15:42:59.664Z,78.65
2022-12-15T15:45:26.923Z,76.28
2022-12-15T15:47:56.500Z,81.65
2022-12-15T15:50:29.872Z,78.00
2022-12-15T15:52:57.552Z,73.47
2022-12-15T15:55:34.860Z,76.70
2022-12-15T15:58:11.005Z,77.68
2022-12-15T16:00:38.625Z,76.53
2022-12-15T16:03:06.171Z,72.50
2022-12-15T16:05:33.446Z,76.95
2022-12-15T16:08:01.576Z,77.13
2022-12-15T16:10:28.898Z,78.20
2022-12-15T16:12:58.761Z,82.97
2022-12-15T16:15:29.055Z,73.07
2022-12-15T16:17:56.428Z,84.82
2022-12-15T16:20:27.491Z,79.10
2022-12-15T16:22:59.634Z,76.65
2022-12-15T16:25:41.271Z,81.45
2022-12-15T16:28:20.632Z,81.07
2022-12-15T16:30:48.179Z,81.30
2022-12-15T16:33:15.723Z,81.05
2022-12-15T16:35:43.878Z,86.65
2022-12-15T16:38:29.671Z,85.07
2022-12-15T16:41:04.418Z,96.10
2022-12-15T16:43:37.233Z,90.28
2022-12-15T16:46:06.888Z,88.80
2022-12-15T16:48:34.575Z,92.15
2022-12-15T16:51:02.763Z,93.88
2022-12-15T16:53:32.491Z,93.18
2022-12-15T16:56:03.248Z,95.25
2022-12-15T16:58:31.814Z,103.03
2022-12-15T17:00:59.162Z,98.55
2022-12-15T17:03:29.045Z,97.97
2022-12-15T17:06:02.429Z,101.05
2022-12-15T17:08:45.202Z,104.43
2022-12-15T17:11:27.032Z,103.03
2022-12-15T17:13:57.404Z,100.22
2022-12-15T17:16:26.200Z,107.63
2022-12-15T17:18:53.403Z,106.80
2022-12-15T17:21:28.803Z,100.40
2022-12-15T17:24:00.420Z,105.18
2022-12-15T17:26:30.836Z,105.28
2022-12-15T17:29:06.294Z,101.32
2022-12-15T17:31:36.005Z,102.15
2022-12-15T17:36:54.293Z,90.63
2022-12-15T17:39:22.537Z,93.60
2022-12-15T17:42:05.843Z,88.20
2022-12-15T17:44:37.879Z,88.75
2022-12-15T17:47:08.388Z,91.85
2022-12-15T17:49:38.407Z,93.45
2022-12-15T17:52:29.262Z,95.93
2022-12-15T17:54:57.153Z,87.10
2022-12-15T17:57:24.949Z,87.20
2022-12-15T17:59:51.981Z,90.60
2022-12-15T18:02:19.679Z,86.30
2022-12-15T18:04:47.004Z,86.80
2022-12-15T18:07:19.993Z,85.80
2022-12-15T18:09:47.950Z,91.00
2022-12-15T18:12:23.504Z,84.47
2022-12-15T18:14:51.428Z,83.82
2022-12-15T18:17:19.005Z,85.65
2022-12-15T18:19:46.719Z,88.28
2022-12-15T18:22:24.612Z,80.80
2022-12-15T18:24:53.716Z,79.68
2022-12-15T18:27:21.090Z,73.75
2022-12-15T18:29:48.123Z,72.97
2022-12-15T18:32:17.151Z,79.88
2022-12-15T18:34:44.444Z,81.93
2022-12-15T18:37:23.151Z,79.03
2022-12-15T18:39:50.922Z,82.53
2022-12-15T18:42:21.975Z,80.50
2022-12-15T18:44:53.650Z,74.70
2022-12-15T18:47:23.164Z,76.53
2022-12-15T18:49:50.611Z,74.65
2022-12-15T18:52:28.726Z,79.22
2022-12-15T18:55:01.354Z,76.70
2022-12-15T18:57:33.955Z,73.85
2022-12-15T19:00:16.709Z,80.10
2022-12-15T19:02:43.848Z,70.38
2022-12-15T19:05:29.239Z,86.43
2022-12-15T19:08:11.740Z,78.60
2022-12-15T19:10:49.721Z,81.80
2022-12-15T19:13:19.467Z,75.57
2022-12-15T19:15:47.572Z,81.15
2022-12-15T19:18:35.370Z,73.78
2022-12-15T19:21:41.411Z,75.47
2022-12-15T19:24:12.431Z,72.03
2022-12-15T19:26:40.616Z,75.88
2022-12-15T19:29:25.708Z,77.47
2022-12-15T19:31:53.685Z,80.35
2022-12-15T19:34:21.017Z,75.05
2022-12-15T19:36:48.149Z,74.70
2022-12-15T19:39:22.928Z,79.72
2022-12-15T19:41:50.345Z,79.80
2022-12-15T19:44:17.556Z,80.40
2022-12-15T19:46:44.945Z,81.07
2022-12-15T19:49:12.094Z,76.80
2022-12-15T19:51:39.552Z,84.40
2022-12-15T19:54:06.791Z,84.18
2022-12-15T19:56:33.822Z,82.80
2022-12-15T19:59:00.842Z,75.78
2022-12-15T20:01:28.027Z,81.15
2022-12-15T20:03:55.248Z,78.90
2022-12-15T20:06:27.361Z,89.03
2022-12-15T20:08:56.397Z,81.53
2022-12-15T20:11:28.942Z,79.33
2022-12-15T20:13:56.760Z,72.85
2022-12-15T20:16:25.034Z,79.63
2022-12-15T20:18:54.821Z,77.85
2022-12-15T20:21:24.151Z,81.68
2022-12-15T20:24:02.496Z,79.18
2022-12-15T20:26:30.741Z,79.53
2022-12-15T20:28:58.228Z,82.53
2022-12-15T20:31:26.227Z,76.45
2022-12-15T20:33:53.905Z,78.60
2022-12-15T20:36:27.775Z,77.25
2022-12-15T20:38:55.027Z,82.03
2022-12-15T20:41:27.124Z,77.45
2022-12-15T20:43:55.758Z,83.15
2022-12-15T20:46:26.340Z,82.93
2022-12-15T20:48:55.479Z,76.95
2022-12-15T20:51:24.409Z,79.93
2022-12-15T20:53:52.592Z,84.85
2022-12-15T20:56:23.959Z,82.20
2022-12-15T20:58:52.301Z,81.20
2022-12-15T21:01:35.546Z,83.80
2022-12-15T21:04:22.665Z,88.15
2022-12-15T21:06:54.440Z,80.10
2022-12-15T21:09:22.822Z,92.38
2022-12-15T21:11:52.088Z,87.07
2022-12-15T21:14:22.634Z,82.65
2022-12-15T21:16:50.087Z,83.32
2022-12-15T21:20:06.337Z,84.90
2022-12-15T21:22:05.239Z,85.20
2022-12-15T21:24:32.633Z,77.55
2022-12-15T21:27:01.713Z,98.65
2022-12-15T21:29:29.152Z,90.07
2022-12-15T21:31:56.239Z,94.78
2022-12-15T21:34:23.345Z,90.05
2022-12-15T21:36:55.321Z,88.70
2022-12-15T21:39:31.227Z,86.07
2022-12-15T21:42:00.765Z,83.28
2022-12-15T21:44:28.140Z,84.57
2022-12-15T21:46:55.235Z,78.40
2022-12-15T21:49:22.323Z,79.57
2022-12-15T21:51:57.453Z,92.45
2022-12-15T21:54:32.977Z,84.35
2022-12-15T21:57:01.105Z,90.15
2022-12-15T21:59:33.191Z,87.38
2022-12-15T22:02:01.488Z,86.65
2022-12-15T22:04:35.624Z,95.72
2022-12-15T22:07:03.033Z,92.75
2022-12-15T22:09:30.117Z,105.97
2022-12-15T22:11:57.737Z,103.82
2022-12-15T22:14:29.531Z,111.32
2022-12-15T22:16:58.207Z,102.65
2022-12-15T22:19:25.421Z,107.93
2022-12-15T22:21:52.607Z,101.60
2022-12-15T22:24:20.257Z,103.97
2022-12-15T22:26:47.437Z,99.40
2022-12-15T22:29:23.820Z,92.97
2022-12-15T22:31:52.005Z,87.82
2022-12-15T22:34:23.667Z,108.85
2022-12-15T22:36:52.002Z,102.18
2022-12-15T22:39:19.460Z,131.18
2022-12-15T22:41:50.127Z,135.95
2022-12-15T22:44:22.184Z,116.82
2022-12-15T22:46:51.528Z,130.15
2022-12-15T22:49:22.672Z,132.15
2022-12-15T22:51:49.664Z,129.23
2022-12-15T22:54:22.833Z,135.07
2022-12-15T22:56:54.223Z,147.23
2022-12-15T22:59:33.829Z,187.27
2022-12-15T23:02:02.878Z,226.60
2022-12-15T23:04:32.090Z,324.58
2022-12-15T23:07:03.508Z,318.73
2022-12-15T23:09:33.997Z,331.95
2022-12-15T23:12:01.572Z,198.98
2022-12-15T23:14:51.892Z,226.80
2022-12-15T23:17:18.939Z,186.13
2022-12-15T23:19:46.655Z,185.02
2022-12-15T23:22:14.193Z,196.90
2022-12-15T23:24:41.304Z,194.38
2022-12-15T23:27:12.088Z,192.30
2022-12-15T23:29:39.061Z,193.40
2022-12-15T23:32:06.269Z,235.10
2022-12-15T23:34:33.254Z,200.00
2022-12-15T23:37:01.056Z,294.00
2022-12-15T23:39:28.520Z,301.63
2022-12-15T23:41:55.703Z,258.15
2022-12-15T23:44:23.141Z,263.90
2022-12-15T23:46:50.226Z,254.40
2022-12-15T23:49:17.461Z,266.00
2022-12-15T23:51:44.459Z,280.67
2022-12-15T23:54:11.534Z,263.25
2022-12-15T23:56:39.747Z,223.52
2022-12-15T23:59:07.264Z,198.43
